sensor_id;sensor_type;location;lat;lon;timestamp;temperature;humidity
74155;DHT22;62509;46.248;6.018;2022-07-29T00:04:42;26.20;29.40
74155;DHT22;62509;46.248;6.018;2022-07-29T00:09:44;26.10;29.30
74155;DHT22;62509;46.248;6.018;2022-07-29T00:14:53;26.10;29.30
74155;DHT22;62509;46.248;6.018;2022-07-29T00:19:55;26.20;29.30
74155;DHT22;62509;46.248;6.018;2022-07-29T00:24:56;26.20;29.30
74155;DHT22;62509;46.248;6.018;2022-07-29T00:29:58;26.10;29.20
74155;DHT22;62509;46.248;6.018;2022-07-29T00:35:00;26.10;29.30
74155;DHT22;62509;46.248;6.018;2022-07-29T00:40:20;26.20;29.30
74155;DHT22;62509;46.248;6.018;2022-07-29T00:45:24;26.10;29.30
74155;DHT22;62509;46.248;6.018;2022-07-29T00:50:26;26.20;29.20
74155;DHT22;62509;46.248;6.018;2022-07-29T00:55:28;26.10;29.20
74155;DHT22;62509;46.248;6.018;2022-07-29T01:00:30;26.10;29.20
74155;DHT22;62509;46.248;6.018;2022-07-29T01:05:32;26.10;29.20
74155;DHT22;62509;46.248;6.018;2022-07-29T01:10:52;26.10;29.30
74155;DHT22;62509;46.248;6.018;2022-07-29T01:15:56;26.10;29.20
74155;DHT22;62509;46.248;6.018;2022-07-29T01:21:20;26.10;29.20
74155;DHT22;62509;46.248;6.018;2022-07-29T01:31:42;26.10;29.30
74155;DHT22;62509;46.248;6.018;2022-07-29T01:37:03;26.10;29.30
74155;DHT22;62509;46.248;6.018;2022-07-29T01:47:20;26.10;29.20
74155;DHT22;62509;46.248;6.018;2022-07-29T01:52:30;26.10;29.30
74155;DHT22;62509;46.248;6.018;2022-07-29T01:57:33;26.10;29.30
74155;DHT22;62509;46.248;6.018;2022-07-29T02:02:35;26.10;29.30
74155;DHT22;62509;46.248;6.018;2022-07-29T02:07:39;26.10;29.30
74155;DHT22;62509;46.248;6.018;2022-07-29T02:12:42;26.10;29.30
74155;DHT22;62509;46.248;6.018;2022-07-29T02:17:55;26.10;29.30
74155;DHT22;62509;46.248;6.018;2022-07-29T02:22:58;26.10;29.30
74155;DHT22;62509;46.248;6.018;2022-07-29T02:28:00;26.10;29.30
74155;DHT22;62509;46.248;6.018;2022-07-29T02:33:03;26.10;29.30
74155;DHT22;62509;46.248;6.018;2022-07-29T02:38:06;26.10;29.40
74155;DHT22;62509;46.248;6.018;2022-07-29T02:43:27;26.10;29.30
74155;DHT22;62509;46.248;6.018;2022-07-29T02:48:41;26.10;29.40
74155;DHT22;62509;46.248;6.018;2022-07-29T02:53:47;26.10;29.40
74155;DHT22;62509;46.248;6.018;2022-07-29T02:58:53;26.10;29.30
74155;DHT22;62509;46.248;6.018;2022-07-29T03:03:55;26.10;29.40
74155;DHT22;62509;46.248;6.018;2022-07-29T03:08:57;26.10;29.40
74155;DHT22;62509;46.248;6.018;2022-07-29T03:14:00;26.10;29.30
74155;DHT22;62509;46.248;6.018;2022-07-29T03:19:02;26.10;29.30
74155;DHT22;62509;46.248;6.018;2022-07-29T03:24:04;26.10;29.30
74155;DHT22;62509;46.248;6.018;2022-07-29T03:29:11;26.10;29.40
74155;DHT22;62509;46.248;6.018;2022-07-29T03:34:14;26.10;29.30
74155;DHT22;62509;46.248;6.018;2022-07-29T03:39:20;26.10;29.30
74155;DHT22;62509;46.248;6.018;2022-07-29T03:44:23;26.10;29.30
74155;DHT22;62509;46.248;6.018;2022-07-29T03:49:26;26.10;29.30
74155;DHT22;62509;46.248;6.018;2022-07-29T03:54:29;26.10;29.30
74155;DHT22;62509;46.248;6.018;2022-07-29T03:59:31;26.10;29.30
74155;DHT22;62509;46.248;6.018;2022-07-29T04:04:34;26.10;29.30
74155;DHT22;62509;46.248;6.018;2022-07-29T04:09:36;26.10;29.30
74155;DHT22;62509;46.248;6.018;2022-07-29T04:14:37;26.10;29.30
74155;DHT22;62509;46.248;6.018;2022-07-29T04:19:39;26.10;29.30
74155;DHT22;62509;46.248;6.018;2022-07-29T04:24:41;26.10;29.30
74155;DHT22;62509;46.248;6.018;2022-07-29T04:29:45;26.10;29.30
74155;DHT22;62509;46.248;6.018;2022-07-29T04:34:57;26.10;29.40
74155;DHT22;62509;46.248;6.018;2022-07-29T04:40:00;26.00;29.40
74155;DHT22;62509;46.248;6.018;2022-07-29T04:45:02;26.10;29.50
74155;DHT22;62509;46.248;6.018;2022-07-29T04:50:08;26.00;29.50
74155;DHT22;62509;46.248;6.018;2022-07-29T04:55:10;26.10;29.50
74155;DHT22;62509;46.248;6.018;2022-07-29T05:00:11;26.10;29.50
74155;DHT22;62509;46.248;6.018;2022-07-29T05:05:13;26.10;29.50
74155;DHT22;62509;46.248;6.018;2022-07-29T05:10:15;26.10;29.50
74155;DHT22;62509;46.248;6.018;2022-07-29T05:15:17;26.10;29.60
74155;DHT22;62509;46.248;6.018;2022-07-29T05:20:19;26.10;29.50
74155;DHT22;62509;46.248;6.018;2022-07-29T05:25:27;26.10;29.50
74155;DHT22;62509;46.248;6.018;2022-07-29T05:30:45;26.10;29.50
74155;DHT22;62509;46.248;6.018;2022-07-29T05:35:47;26.10;29.60
74155;DHT22;62509;46.248;6.018;2022-07-29T05:40:48;26.10;29.60
74155;DHT22;62509;46.248;6.018;2022-07-29T05:45:50;26.10;29.70
74155;DHT22;62509;46.248;6.018;2022-07-29T05:50:52;26.10;29.70
74155;DHT22;62509;46.248;6.018;2022-07-29T05:55:54;26.10;29.70
74155;DHT22;62509;46.248;6.018;2022-07-29T06:00:56;26.10;29.80
74155;DHT22;62509;46.248;6.018;2022-07-29T06:06:00;26.10;29.80
74155;DHT22;62509;46.248;6.018;2022-07-29T06:11:03;26.10;29.90
74155;DHT22;62509;46.248;6.018;2022-07-29T06:16:05;26.10;29.90
74155;DHT22;62509;46.248;6.018;2022-07-29T06:21:07;26.10;30.00
74155;DHT22;62509;46.248;6.018;2022-07-29T06:26:09;26.10;30.00
74155;DHT22;62509;46.248;6.018;2022-07-29T06:31:11;26.10;30.10
74155;DHT22;62509;46.248;6.018;2022-07-29T06:36:13;26.10;30.20
74155;DHT22;62509;46.248;6.018;2022-07-29T06:41:15;26.10;30.40
74155;DHT22;62509;46.248;6.018;2022-07-29T06:46:17;26.10;30.50
74155;DHT22;62509;46.248;6.018;2022-07-29T06:51:20;26.10;30.50
74155;DHT22;62509;46.248;6.018;2022-07-29T06:56:24;26.10;30.60
74155;DHT22;62509;46.248;6.018;2022-07-29T07:01:26;26.10;30.70
74155;DHT22;62509;46.248;6.018;2022-07-29T07:06:28;26.10;30.80
74155;DHT22;62509;46.248;6.018;2022-07-29T07:11:29;26.10;30.90
74155;DHT22;62509;46.248;6.018;2022-07-29T07:16:32;26.10;31.00
74155;DHT22;62509;46.248;6.018;2022-07-29T07:21:34;26.10;31.10
74155;DHT22;62509;46.248;6.018;2022-07-29T07:26:36;26.10;31.10
74155;DHT22;62509;46.248;6.018;2022-07-29T07:31:39;26.10;31.20
74155;DHT22;62509;46.248;6.018;2022-07-29T07:36:41;26.10;31.20
74155;DHT22;62509;46.248;6.018;2022-07-29T07:41:42;26.10;31.20
74155;DHT22;62509;46.248;6.018;2022-07-29T07:46:44;26.20;31.30
74155;DHT22;62509;46.248;6.018;2022-07-29T07:51:46;26.20;31.30
74155;DHT22;62509;46.248;6.018;2022-07-29T07:56:51;26.20;31.30
74155;DHT22;62509;46.248;6.018;2022-07-29T08:01:53;26.10;31.10
74155;DHT22;62509;46.248;6.018;2022-07-29T08:06:57;26.20;31.30
74155;DHT22;62509;46.248;6.018;2022-07-29T08:11:59;26.20;31.20
74155;DHT22;62509;46.248;6.018;2022-07-29T08:17:01;26.20;31.20
74155;DHT22;62509;46.248;6.018;2022-07-29T08:22:03;26.20;31.10
74155;DHT22;62509;46.248;6.018;2022-07-29T08:27:04;26.20;31.10
74155;DHT22;62509;46.248;6.018;2022-07-29T08:32:26;26.20;31.10
74155;DHT22;62509;46.248;6.018;2022-07-29T08:37:50;26.20;31.00
74155;DHT22;62509;46.248;6.018;2022-07-29T08:42:51;26.20;31.00
74155;DHT22;62509;46.248;6.018;2022-07-29T08:47:53;26.20;30.90
74155;DHT22;62509;46.248;6.018;2022-07-29T08:52:56;26.20;31.00
74155;DHT22;62509;46.248;6.018;2022-07-29T08:58:00;26.20;31.00
74155;DHT22;62509;46.248;6.018;2022-07-29T09:03:02;26.20;30.90
74155;DHT22;62509;46.248;6.018;2022-07-29T09:08:05;26.20;30.90
74155;DHT22;62509;46.248;6.018;2022-07-29T09:13:07;26.20;30.90
74155;DHT22;62509;46.248;6.018;2022-07-29T09:18:08;26.20;30.80
74155;DHT22;62509;46.248;6.018;2022-07-29T09:23:30;26.30;30.80
74155;DHT22;62509;46.248;6.018;2022-07-29T09:28:32;26.30;30.80
74155;DHT22;62509;46.248;6.018;2022-07-29T09:33:34;26.30;30.80
74155;DHT22;62509;46.248;6.018;2022-07-29T09:38:43;26.30;30.70
74155;DHT22;62509;46.248;6.018;2022-07-29T09:43:58;26.30;30.70
74155;DHT22;62509;46.248;6.018;2022-07-29T09:49:10;26.30;30.60
74155;DHT22;62509;46.248;6.018;2022-07-29T09:59:23;26.30;30.60
74155;DHT22;62509;46.248;6.018;2022-07-29T10:04:37;26.30;30.50
74155;DHT22;62509;46.248;6.018;2022-07-29T10:09:40;26.30;30.60
74155;DHT22;62509;46.248;6.018;2022-07-29T10:14:51;26.30;30.60
74155;DHT22;62509;46.248;6.018;2022-07-29T10:19:53;26.30;30.60
74155;DHT22;62509;46.248;6.018;2022-07-29T10:24:54;26.30;30.60
74155;DHT22;62509;46.248;6.018;2022-07-29T10:29:56;26.30;30.60
74155;DHT22;62509;46.248;6.018;2022-07-29T10:45:59;26.40;31.10
74155;DHT22;62509;46.248;6.018;2022-07-29T10:51:02;26.30;31.20
74155;DHT22;62509;46.248;6.018;2022-07-29T10:56:04;26.40;31.40
74155;DHT22;62509;46.248;6.018;2022-07-29T11:01:29;26.40;31.50
74155;DHT22;62509;46.248;6.018;2022-07-29T11:07:06;26.30;31.60
74155;DHT22;62509;46.248;6.018;2022-07-29T11:17:28;26.30;31.90
74155;DHT22;62509;46.248;6.018;2022-07-29T11:22:50;26.30;32.20
74155;DHT22;62509;46.248;6.018;2022-07-29T11:27:54;26.30;32.30
74155;DHT22;62509;46.248;6.018;2022-07-29T11:33:08;26.30;32.50
74155;DHT22;62509;46.248;6.018;2022-07-29T11:38:47;26.30;32.60
74155;DHT22;62509;46.248;6.018;2022-07-29T11:48:52;26.30;32.80
74155;DHT22;62509;46.248;6.018;2022-07-29T11:53:54;26.30;33.00
74155;DHT22;62509;46.248;6.018;2022-07-29T11:59:04;26.30;33.20
74155;DHT22;62509;46.248;6.018;2022-07-29T12:04:26;26.30;33.30
74155;DHT22;62509;46.248;6.018;2022-07-29T12:09:28;26.30;33.40
74155;DHT22;62509;46.248;6.018;2022-07-29T12:14:40;26.30;33.50
74155;DHT22;62509;46.248;6.018;2022-07-29T12:19:46;26.30;33.60
74155;DHT22;62509;46.248;6.018;2022-07-29T12:24:51;26.30;33.70
74155;DHT22;62509;46.248;6.018;2022-07-29T12:34:59;26.30;34.00
74155;DHT22;62509;46.248;6.018;2022-07-29T12:40:03;26.30;34.10
74155;DHT22;62509;46.248;6.018;2022-07-29T12:45:06;26.30;34.20
74155;DHT22;62509;46.248;6.018;2022-07-29T12:50:12;26.30;34.30
74155;DHT22;62509;46.248;6.018;2022-07-29T12:55:16;26.30;34.40
74155;DHT22;62509;46.248;6.018;2022-07-29T13:00:37;26.30;34.50
74155;DHT22;62509;46.248;6.018;2022-07-29T13:05:40;26.40;34.60
74155;DHT22;62509;46.248;6.018;2022-07-29T13:10:49;26.40;34.60
74155;DHT22;62509;46.248;6.018;2022-07-29T13:16:04;26.40;34.70
74155;DHT22;62509;46.248;6.018;2022-07-29T13:21:10;26.40;34.70
74155;DHT22;62509;46.248;6.018;2022-07-29T13:26:12;26.40;34.70
74155;DHT22;62509;46.248;6.018;2022-07-29T13:31:13;26.40;34.70
74155;DHT22;62509;46.248;6.018;2022-07-29T13:36:15;26.40;34.70
74155;DHT22;62509;46.248;6.018;2022-07-29T13:41:17;26.40;34.90
74155;DHT22;62509;46.248;6.018;2022-07-29T13:46:19;26.40;34.90
74155;DHT22;62509;46.248;6.018;2022-07-29T13:51:21;26.40;34.90
74155;DHT22;62509;46.248;6.018;2022-07-29T13:56:23;26.40;34.80
74155;DHT22;62509;46.248;6.018;2022-07-29T14:01:25;26.40;34.80
74155;DHT22;62509;46.248;6.018;2022-07-29T14:06:27;26.40;34.90
74155;DHT22;62509;46.248;6.018;2022-07-29T14:11:30;26.40;34.80
74155;DHT22;62509;46.248;6.018;2022-07-29T14:16:32;26.40;34.70
74155;DHT22;62509;46.248;6.018;2022-07-29T14:21:33;26.50;34.80
74155;DHT22;62509;46.248;6.018;2022-07-29T14:26:37;26.50;34.70
74155;DHT22;62509;46.248;6.018;2022-07-29T14:31:38;26.50;34.60
74155;DHT22;62509;46.248;6.018;2022-07-29T14:36:40;26.50;34.60
74155;DHT22;62509;46.248;6.018;2022-07-29T14:41:43;26.50;34.50
74155;DHT22;62509;46.248;6.018;2022-07-29T14:46:44;26.50;34.50
74155;DHT22;62509;46.248;6.018;2022-07-29T14:51:49;26.50;34.40
74155;DHT22;62509;46.248;6.018;2022-07-29T14:56:51;26.50;34.30
74155;DHT22;62509;46.248;6.018;2022-07-29T15:01:56;26.50;34.20
74155;DHT22;62509;46.248;6.018;2022-07-29T15:06:59;26.50;34.10
74155;DHT22;62509;46.248;6.018;2022-07-29T15:12:00;26.50;34.00
74155;DHT22;62509;46.248;6.018;2022-07-29T15:17:04;26.50;34.00
74155;DHT22;62509;46.248;6.018;2022-07-29T15:22:06;26.50;34.00
74155;DHT22;62509;46.248;6.018;2022-07-29T15:27:08;26.50;33.90
74155;DHT22;62509;46.248;6.018;2022-07-29T15:32:15;26.50;33.90
74155;DHT22;62509;46.248;6.018;2022-07-29T15:37:17;26.50;33.90
74155;DHT22;62509;46.248;6.018;2022-07-29T15:42:19;26.50;33.80
74155;DHT22;62509;46.248;6.018;2022-07-29T15:47:21;26.50;33.70
74155;DHT22;62509;46.248;6.018;2022-07-29T15:52:22;26.60;33.70
74155;DHT22;62509;46.248;6.018;2022-07-29T15:57:26;26.60;33.60
74155;DHT22;62509;46.248;6.018;2022-07-29T16:02:28;26.60;33.50
74155;DHT22;62509;46.248;6.018;2022-07-29T16:07:30;26.60;33.40
74155;DHT22;62509;46.248;6.018;2022-07-29T16:12:33;26.60;33.30
74155;DHT22;62509;46.248;6.018;2022-07-29T16:17:34;26.60;33.30
74155;DHT22;62509;46.248;6.018;2022-07-29T16:22:36;26.60;33.20
74155;DHT22;62509;46.248;6.018;2022-07-29T16:27:38;26.60;33.20
74155;DHT22;62509;46.248;6.018;2022-07-29T16:32:40;26.60;33.30
74155;DHT22;62509;46.248;6.018;2022-07-29T16:37:42;26.60;33.40
74155;DHT22;62509;46.248;6.018;2022-07-29T16:42:43;26.60;33.40
74155;DHT22;62509;46.248;6.018;2022-07-29T16:47:47;26.60;33.50
74155;DHT22;62509;46.248;6.018;2022-07-29T16:52:50;26.60;33.50
74155;DHT22;62509;46.248;6.018;2022-07-29T16:57:52;26.60;33.50
74155;DHT22;62509;46.248;6.018;2022-07-29T17:02:54;26.60;33.60
74155;DHT22;62509;46.248;6.018;2022-07-29T17:07:56;26.60;33.60
74155;DHT22;62509;46.248;6.018;2022-07-29T17:12:59;26.60;33.70
74155;DHT22;62509;46.248;6.018;2022-07-29T17:18:01;26.60;33.60
74155;DHT22;62509;46.248;6.018;2022-07-29T17:23:13;26.60;33.80
74155;DHT22;62509;46.248;6.018;2022-07-29T17:28:14;26.60;33.70
74155;DHT22;62509;46.248;6.018;2022-07-29T17:33:16;26.60;33.70
74155;DHT22;62509;46.248;6.018;2022-07-29T17:38:18;26.60;33.70
74155;DHT22;62509;46.248;6.018;2022-07-29T17:43:22;26.60;33.70
74155;DHT22;62509;46.248;6.018;2022-07-29T17:48:25;26.60;33.70
74155;DHT22;62509;46.248;6.018;2022-07-29T17:53:26;26.60;33.70
74155;DHT22;62509;46.248;6.018;2022-07-29T17:58:29;26.60;33.70
74155;DHT22;62509;46.248;6.018;2022-07-29T18:03:31;26.60;33.80
74155;DHT22;62509;46.248;6.018;2022-07-29T18:08:32;26.60;33.80
74155;DHT22;62509;46.248;6.018;2022-07-29T18:13:35;26.70;33.90
74155;DHT22;62509;46.248;6.018;2022-07-29T18:18:37;26.60;33.80
74155;DHT22;62509;46.248;6.018;2022-07-29T18:23:38;26.60;33.80
74155;DHT22;62509;46.248;6.018;2022-07-29T18:28:40;26.70;34.00
74155;DHT22;62509;46.248;6.018;2022-07-29T18:33:42;26.70;33.90
74155;DHT22;62509;46.248;6.018;2022-07-29T18:38:44;26.70;34.00
74155;DHT22;62509;46.248;6.018;2022-07-29T18:43:46;26.70;34.10
74155;DHT22;62509;46.248;6.018;2022-07-29T18:48:48;26.70;34.10
74155;DHT22;62509;46.248;6.018;2022-07-29T18:53:50;26.60;34.10
74155;DHT22;62509;46.248;6.018;2022-07-29T18:58:52;26.60;34.20
74155;DHT22;62509;46.248;6.018;2022-07-29T19:03:55;26.70;34.30
74155;DHT22;62509;46.248;6.018;2022-07-29T19:08:57;26.70;34.40
74155;DHT22;62509;46.248;6.018;2022-07-29T19:13:58;26.70;34.30
74155;DHT22;62509;46.248;6.018;2022-07-29T19:19:00;26.60;34.40
74155;DHT22;62509;46.248;6.018;2022-07-29T19:24:02;26.70;34.50
74155;DHT22;62509;46.248;6.018;2022-07-29T19:29:10;26.70;34.60
74155;DHT22;62509;46.248;6.018;2022-07-29T19:34:12;26.70;34.60
74155;DHT22;62509;46.248;6.018;2022-07-29T19:39:14;26.70;34.60
74155;DHT22;62509;46.248;6.018;2022-07-29T19:44:15;26.60;34.60
74155;DHT22;62509;46.248;6.018;2022-07-29T19:49:17;26.70;34.60
74155;DHT22;62509;46.248;6.018;2022-07-29T19:54:19;26.60;34.50
74155;DHT22;62509;46.248;6.018;2022-07-29T19:59:21;26.70;34.60
74155;DHT22;62509;46.248;6.018;2022-07-29T20:04:25;26.70;34.60
74155;DHT22;62509;46.248;6.018;2022-07-29T20:09:26;26.60;34.50
74155;DHT22;62509;46.248;6.018;2022-07-29T20:14:28;26.70;34.60
74155;DHT22;62509;46.248;6.018;2022-07-29T20:19:30;26.60;34.50
74155;DHT22;62509;46.248;6.018;2022-07-29T20:24:33;26.60;34.50
74155;DHT22;62509;46.248;6.018;2022-07-29T20:29:35;26.60;34.50
74155;DHT22;62509;46.248;6.018;2022-07-29T20:34:37;26.60;34.50
74155;DHT22;62509;46.248;6.018;2022-07-29T20:39:41;26.60;34.40
74155;DHT22;62509;46.248;6.018;2022-07-29T20:44:43;26.60;34.40
74155;DHT22;62509;46.248;6.018;2022-07-29T20:49:45;26.60;34.40
74155;DHT22;62509;46.248;6.018;2022-07-29T20:54:46;26.60;34.30
74155;DHT22;62509;46.248;6.018;2022-07-29T20:59:51;26.60;34.20
74155;DHT22;62509;46.248;6.018;2022-07-29T21:04:53;26.60;34.20
74155;DHT22;62509;46.248;6.018;2022-07-29T21:09:54;26.60;34.10
74155;DHT22;62509;46.248;6.018;2022-07-29T21:14:56;26.60;34.00
74155;DHT22;62509;46.248;6.018;2022-07-29T21:19:58;26.60;34.00
74155;DHT22;62509;46.248;6.018;2022-07-29T21:25:00;26.60;34.00
74155;DHT22;62509;46.248;6.018;2022-07-29T21:30:02;26.60;33.90
74155;DHT22;62509;46.248;6.018;2022-07-29T21:35:04;26.60;33.80
74155;DHT22;62509;46.248;6.018;2022-07-29T21:40:26;26.60;33.70
74155;DHT22;62509;46.248;6.018;2022-07-29T21:45:27;26.60;33.60
74155;DHT22;62509;46.248;6.018;2022-07-29T21:50:29;26.60;33.40
74155;DHT22;62509;46.248;6.018;2022-07-29T21:55:31;26.60;33.40
74155;DHT22;62509;46.248;6.018;2022-07-29T22:00:33;26.50;33.30
74155;DHT22;62509;46.248;6.018;2022-07-29T22:05:35;26.50;33.20
74155;DHT22;62509;46.248;6.018;2022-07-29T22:10:37;26.50;33.10
74155;DHT22;62509;46.248;6.018;2022-07-29T22:15:39;26.50;33.10
74155;DHT22;62509;46.248;6.018;2022-07-29T22:20:48;26.50;33.00
74155;DHT22;62509;46.248;6.018;2022-07-29T22:25:50;26.50;32.90
74155;DHT22;62509;46.248;6.018;2022-07-29T22:30:51;26.50;32.90
74155;DHT22;62509;46.248;6.018;2022-07-29T22:35:53;26.50;32.80
74155;DHT22;62509;46.248;6.018;2022-07-29T22:40:55;26.50;32.80
74155;DHT22;62509;46.248;6.018;2022-07-29T22:46:01;26.50;32.70
74155;DHT22;62509;46.248;6.018;2022-07-29T22:51:03;26.50;32.70
74155;DHT22;62509;46.248;6.018;2022-07-29T22:56:05;26.50;32.60
74155;DHT22;62509;46.248;6.018;2022-07-29T23:01:06;26.40;32.50
74155;DHT22;62509;46.248;6.018;2022-07-29T23:06:08;26.40;32.50
74155;DHT22;62509;46.248;6.018;2022-07-29T23:11:10;26.40;32.50
74155;DHT22;62509;46.248;6.018;2022-07-29T23:16:12;26.40;32.50
74155;DHT22;62509;46.248;6.018;2022-07-29T23:21:26;26.40;32.50
74155;DHT22;62509;46.248;6.018;2022-07-29T23:26:28;26.40;32.40
74155;DHT22;62509;46.248;6.018;2022-07-29T23:31:30;26.40;32.40
74155;DHT22;62509;46.248;6.018;2022-07-29T23:36:32;26.40;32.40
74155;DHT22;62509;46.248;6.018;2022-07-29T23:41:34;26.40;32.30
74155;DHT22;62509;46.248;6.018;2022-07-29T23:46:35;26.40;32.20
74155;DHT22;62509;46.248;6.018;2022-07-29T23:51:37;26.40;32.20
74155;DHT22;62509;46.248;6.018;2022-07-29T23:56:39;26.40;32.20
